createdAt,value
2019-04-14T00:02:35.852Z,30.03
2019-04-14T00:05:21.079Z,28.60
2019-04-14T00:08:06.792Z,31.13
2019-04-14T00:10:52.854Z,29.60
2019-04-14T00:13:37.541Z,26.00
2019-04-14T00:16:22.788Z,26.40
2019-04-14T00:19:08.743Z,27.73
2019-04-14T00:21:54.400Z,27.77
2019-04-14T00:24:40.046Z,27.90
2019-04-14T00:27:25.885Z,31.93
2019-04-14T00:30:11.894Z,30.27
2019-04-14T00:32:57.428Z,28.60
2019-04-14T00:35:42.786Z,24.97
2019-04-14T00:38:28.064Z,25.63
2019-04-14T00:41:13.625Z,26.07
2019-04-14T00:43:59.235Z,25.77
2019-04-14T00:46:45.151Z,27.37
2019-04-14T00:49:31.166Z,25.93
2019-04-14T00:52:16.846Z,29.90
2019-04-14T00:55:03.291Z,28.67
2019-04-14T00:57:48.663Z,26.80
2019-04-14T01:00:34.187Z,28.73
2019-04-14T01:03:19.879Z,27.80
2019-04-14T01:06:05.337Z,29.90
2019-04-14T01:08:51.162Z,29.73
2019-04-14T01:11:35.883Z,27.10
2019-04-14T01:14:21.263Z,29.40
2019-04-14T01:17:06.850Z,28.30
2019-04-14T01:19:52.671Z,27.00
2019-04-14T01:22:38.094Z,23.27
2019-04-14T01:25:22.408Z,26.10
2019-04-14T01:28:06.967Z,26.53
2019-04-14T01:30:52.325Z,25.60
2019-04-14T01:33:37.853Z,25.90
2019-04-14T01:36:23.485Z,25.10
2019-04-14T01:39:08.924Z,25.03
2019-04-14T01:41:54.380Z,25.40
2019-04-14T01:44:39.637Z,24.87
2019-04-14T01:47:24.889Z,28.37
2019-04-14T01:50:10.537Z,25.80
2019-04-14T01:52:54.665Z,25.10
2019-04-14T01:55:39.488Z,26.80
2019-04-14T01:58:25.056Z,22.37
2019-04-14T02:01:10.550Z,24.27
2019-04-14T02:03:54.961Z,24.30
2019-04-14T02:06:39.900Z,21.20
2019-04-14T02:09:25.134Z,22.27
2019-04-14T02:12:10.572Z,20.73
2019-04-14T02:14:56.260Z,20.20
2019-04-14T02:17:41.640Z,19.37
2019-04-14T02:20:27.149Z,20.23
2019-04-14T02:23:12.540Z,20.53
2019-04-14T02:25:57.948Z,22.27
2019-04-14T02:28:42.308Z,21.20
2019-04-14T02:31:52.885Z,24.60
2019-04-14T02:34:41.700Z,22.37
2019-04-14T02:37:26.368Z,22.90
2019-04-14T02:42:56.307Z,21.70
2019-04-14T02:45:58.766Z,19.67
2019-04-14T02:48:44.149Z,21.83
2019-04-14T02:51:23.285Z,21.53
2019-04-14T02:53:57.746Z,21.53
2019-04-14T02:56:58.898Z,21.07
2019-04-14T02:59:45.266Z,21.37
2019-04-14T03:05:09.428Z,20.33
2019-04-14T03:08:04.277Z,19.97
2019-04-14T03:10:42.147Z,23.17
2019-04-14T03:13:35.268Z,22.50
2019-04-14T03:18:58.179Z,22.10
2019-04-14T03:21:49.301Z,25.50
2019-04-14T03:24:31.918Z,22.87
2019-04-14T03:27:35.481Z,22.10
2019-04-14T03:30:23.346Z,21.70
2019-04-14T03:36:06.666Z,23.33
2019-04-14T03:38:50.208Z,21.13
2019-04-14T03:41:24.142Z,23.10
2019-04-14T03:43:54.928Z,23.23
2019-04-14T03:46:50.693Z,21.13
2019-04-14T03:49:40.791Z,23.73
2019-04-14T03:52:27.609Z,20.87
2019-04-14T03:54:57.032Z,21.47
2019-04-14T03:57:29.607Z,20.60
2019-04-14T04:00:15.864Z,22.87
2019-04-14T04:03:00.587Z,23.83
2019-04-14T04:05:45.634Z,22.80
2019-04-14T04:08:31.303Z,24.00
2019-04-14T04:11:15.760Z,21.93
2019-04-14T04:14:00.689Z,22.23
2019-04-14T04:16:46.107Z,21.37
2019-04-14T04:19:31.557Z,20.07
2019-04-14T04:22:17.200Z,21.63
2019-04-14T04:25:02.963Z,20.07
2019-04-14T04:27:48.362Z,19.57
2019-04-14T04:30:34.063Z,21.00
2019-04-14T04:33:19.896Z,19.90
2019-04-14T04:36:05.287Z,20.40
2019-04-14T04:38:50.992Z,22.33
2019-04-14T04:41:36.436Z,19.13
2019-04-14T04:44:20.924Z,20.37
2019-04-14T04:47:05.766Z,21.10
2019-04-14T04:49:51.239Z,22.33
2019-04-14T04:52:36.489Z,20.97
2019-04-14T04:55:22.007Z,21.03
2019-04-14T04:58:07.787Z,21.87
2019-04-14T05:00:54.170Z,20.20
2019-04-14T05:03:38.586Z,20.40
2019-04-14T05:06:59.060Z,20.80
2019-04-14T05:09:44.830Z,24.57
2019-04-14T05:12:29.044Z,23.27
2019-04-14T05:15:14.015Z,20.87
2019-04-14T05:17:58.226Z,21.63
2019-04-14T05:20:44.113Z,19.70
2019-04-14T05:23:29.820Z,19.10
2019-04-14T05:26:15.497Z,19.67
2019-04-14T05:29:01.397Z,18.40
2019-04-14T05:31:46.838Z,18.53
2019-04-14T05:34:32.630Z,18.17
2019-04-14T05:37:18.225Z,17.60
2019-04-14T05:40:05.903Z,16.60
2019-04-14T05:42:51.513Z,15.27
2019-04-14T05:45:37.341Z,15.40
2019-04-14T05:48:22.860Z,17.57
2019-04-14T05:51:08.524Z,16.10
2019-04-14T05:53:53.109Z,14.93
2019-04-14T05:56:39.147Z,13.83
2019-04-14T05:59:24.678Z,15.20
2019-04-14T06:02:09.648Z,15.17
2019-04-14T06:04:55.000Z,15.10
2019-04-14T06:07:39.985Z,15.27
2019-04-14T06:10:25.063Z,14.33
2019-04-14T06:13:11.706Z,14.70
2019-04-14T06:15:55.659Z,15.20
2019-04-14T06:18:40.262Z,13.33
2019-04-14T06:21:24.820Z,15.50
2019-04-14T06:24:09.477Z,13.63
2019-04-14T06:26:53.831Z,14.67
2019-04-14T06:29:38.592Z,15.07
2019-04-14T06:32:23.136Z,14.50
2019-04-14T06:35:08.321Z,16.13
2019-04-14T06:37:53.148Z,15.70
2019-04-14T06:40:37.823Z,14.30
2019-04-14T06:43:22.371Z,15.37
2019-04-14T06:46:06.958Z,14.60
2019-04-14T06:48:51.379Z,15.90
2019-04-14T06:51:35.762Z,15.60
2019-04-14T06:54:20.840Z,16.97
2019-04-14T06:57:05.705Z,16.10
2019-04-14T06:59:50.967Z,14.90
2019-04-14T07:02:35.733Z,16.97
2019-04-14T07:05:20.185Z,16.03
2019-04-14T07:08:04.642Z,15.67
2019-04-14T07:10:49.402Z,15.03
2019-04-14T07:13:34.011Z,16.57
2019-04-14T07:16:18.722Z,17.67
2019-04-14T07:19:03.688Z,16.63
2019-04-14T07:21:48.558Z,16.10
2019-04-14T07:24:33.314Z,16.23
2019-04-14T07:27:17.971Z,18.33
2019-04-14T07:30:04.077Z,15.33
2019-04-14T07:32:48.531Z,16.07
2019-04-14T07:35:33.202Z,17.77
2019-04-14T07:38:17.634Z,17.63
2019-04-14T07:41:02.709Z,16.10
2019-04-14T07:43:47.676Z,16.50
2019-04-14T07:46:32.138Z,17.53
2019-04-14T07:49:16.781Z,15.00
2019-04-14T07:52:01.341Z,16.30
2019-04-14T07:54:46.302Z,15.57
2019-04-14T07:57:30.978Z,17.50
2019-04-14T08:00:16.042Z,16.73
2019-04-14T08:03:00.651Z,17.23
2019-04-14T08:05:45.352Z,16.83
2019-04-14T08:08:29.916Z,16.90
2019-04-14T08:11:14.491Z,18.90
2019-04-14T08:13:58.987Z,18.80
2019-04-14T08:16:43.988Z,18.53
2019-04-14T08:19:28.956Z,21.90
2019-04-14T08:22:13.714Z,20.30
2019-04-14T08:24:58.784Z,20.03
2019-04-14T08:27:43.241Z,19.70
2019-04-14T08:30:28.001Z,18.63
2019-04-14T08:33:12.761Z,20.63
2019-04-14T08:35:57.900Z,19.93
2019-04-14T08:38:42.903Z,20.90
2019-04-14T08:41:27.470Z,23.03
2019-04-14T08:44:12.017Z,22.77
2019-04-14T08:46:56.672Z,20.73
2019-04-14T08:49:41.460Z,20.53
2019-04-14T08:52:25.788Z,20.40
2019-04-14T08:55:10.545Z,23.27
2019-04-14T08:57:55.338Z,19.00
2019-04-14T09:00:39.557Z,21.87
2019-04-14T09:03:24.222Z,19.73
2019-04-14T09:06:08.878Z,21.83
2019-04-14T09:08:53.238Z,19.63
2019-04-14T09:11:39.121Z,20.23
2019-04-14T09:14:23.987Z,21.80
2019-04-14T09:17:08.302Z,20.03
2019-04-14T09:19:53.213Z,20.90
2019-04-14T09:22:37.754Z,20.97
2019-04-14T09:25:22.518Z,19.87
2019-04-14T09:28:07.588Z,20.87
2019-04-14T09:30:52.295Z,21.43
2019-04-14T09:33:36.805Z,22.47
2019-04-14T09:36:21.468Z,19.70
2019-04-14T09:39:06.170Z,20.90
2019-04-14T09:41:50.720Z,22.95
2019-04-14T09:44:35.134Z,23.03
2019-04-14T09:47:19.897Z,21.20
2019-04-14T09:50:05.371Z,24.00
2019-04-14T09:52:49.783Z,24.50
2019-04-14T09:55:34.233Z,23.47
2019-04-14T09:58:18.769Z,23.93
2019-04-14T10:01:04.009Z,27.83
2019-04-14T10:03:48.059Z,25.63
2019-04-14T10:06:32.612Z,24.13
2019-04-14T10:09:17.169Z,27.43
2019-04-14T10:12:02.033Z,25.40
2019-04-14T10:14:46.384Z,27.70
2019-04-14T10:17:30.870Z,27.40
2019-04-14T10:20:15.501Z,27.83
2019-04-14T10:23:00.160Z,29.27
2019-04-14T10:25:44.508Z,29.37
2019-04-14T10:28:29.166Z,38.10
2019-04-14T10:31:13.929Z,23.43
2019-04-14T10:33:58.792Z,24.83
2019-04-14T10:36:43.452Z,25.73
2019-04-14T10:39:28.113Z,23.70
2019-04-14T10:42:13.192Z,26.37
2019-04-14T10:44:57.841Z,26.07
2019-04-14T10:47:42.137Z,23.13
2019-04-14T10:50:31.040Z,32.07
2019-04-14T10:53:12.814Z,27.53
2019-04-14T10:55:57.193Z,27.77
2019-04-14T10:58:42.877Z,26.73
2019-04-14T11:01:28.765Z,28.87
2019-04-14T11:04:13.431Z,25.07
2019-04-14T11:06:58.109Z,25.23
2019-04-14T11:09:42.847Z,28.63
2019-04-14T11:12:27.913Z,24.47
2019-04-14T11:15:15.599Z,26.57
2019-04-14T11:18:00.205Z,27.17
2019-04-14T11:20:44.964Z,24.87
2019-04-14T11:23:30.656Z,24.00
2019-04-14T11:26:15.099Z,22.90
2019-04-14T11:28:59.759Z,21.23
2019-04-14T11:31:44.623Z,24.30
2019-04-14T11:34:29.494Z,23.27
2019-04-14T11:37:14.044Z,23.57
2019-04-14T11:39:58.843Z,23.80
2019-04-14T11:42:52.121Z,25.47
2019-04-14T11:45:31.401Z,25.00
2019-04-14T11:48:16.289Z,21.53
2019-04-14T11:51:01.233Z,21.90
2019-04-14T11:53:46.009Z,19.97
2019-04-14T11:56:30.172Z,19.57
2019-04-14T11:59:14.602Z,20.37
2019-04-14T12:01:58.846Z,18.07
2019-04-14T12:04:43.813Z,21.27
2019-04-14T12:07:28.574Z,18.63
2019-04-14T12:10:13.335Z,17.97
2019-04-14T12:12:57.789Z,17.63
2019-04-14T12:15:42.449Z,17.93
2019-04-14T12:18:26.933Z,16.77
2019-04-14T12:21:11.766Z,17.37
2019-04-14T12:23:56.828Z,16.43
2019-04-14T12:26:41.602Z,16.47
2019-04-14T12:29:26.799Z,16.80
2019-04-14T12:32:12.767Z,17.77
2019-04-14T12:34:57.666Z,15.40
2019-04-14T12:37:42.591Z,14.63
2019-04-14T12:40:27.126Z,14.43
2019-04-14T12:43:11.306Z,14.83
2019-04-14T12:45:56.014Z,15.43
2019-04-14T12:48:40.862Z,14.97
2019-04-14T12:51:25.578Z,14.47
2019-04-14T12:54:10.342Z,14.13
2019-04-14T12:56:55.027Z,12.50
2019-04-14T12:59:40.116Z,13.20
2019-04-14T13:02:24.963Z,13.23
2019-04-14T13:05:10.104Z,16.53
2019-04-14T13:07:54.194Z,14.00
2019-04-14T13:10:38.578Z,11.57
2019-04-14T13:13:23.104Z,13.37
2019-04-14T13:16:07.384Z,11.47
2019-04-14T13:18:52.074Z,13.53
2019-04-14T13:21:36.939Z,13.77
2019-04-14T13:24:21.289Z,11.87
2019-04-14T13:27:06.152Z,13.40
2019-04-14T13:29:50.889Z,12.50
2019-04-14T13:32:36.464Z,11.87
2019-04-14T13:35:21.768Z,12.37
2019-04-14T13:38:06.119Z,12.77
2019-04-14T13:40:50.985Z,13.07
2019-04-14T13:43:35.595Z,11.30
2019-04-14T13:46:20.610Z,12.73
2019-04-14T13:49:05.225Z,86.33
2019-04-14T13:51:49.721Z,23.33
2019-04-14T13:54:33.870Z,10.10
2019-04-14T13:57:18.733Z,9.60
2019-04-14T14:00:12.096Z,9.70
2019-04-14T14:02:56.732Z,7.97
2019-04-14T14:05:43.425Z,7.70
2019-04-14T14:08:27.457Z,7.83
2019-04-14T14:11:12.479Z,8.50
2019-04-14T14:13:57.135Z,9.03
2019-04-14T14:16:41.813Z,8.27
2019-04-14T14:19:26.254Z,6.70
2019-04-14T14:22:10.822Z,7.57
2019-04-14T14:24:55.362Z,5.77
2019-04-14T14:27:40.329Z,5.13
2019-04-14T14:30:24.886Z,4.40
2019-04-14T14:33:09.646Z,4.50
2019-04-14T14:35:54.367Z,4.50
2019-04-14T14:38:38.883Z,3.90
2019-04-14T14:41:23.731Z,3.43
2019-04-14T14:44:08.392Z,3.50
2019-04-14T14:46:53.457Z,4.47
2019-04-14T14:49:37.803Z,3.43
2019-04-14T14:52:22.124Z,3.63
2019-04-14T14:55:09.071Z,3.37
2019-04-14T14:57:53.884Z,3.47
2019-04-14T15:00:38.186Z,3.47
2019-04-14T15:03:23.055Z,2.80
2019-04-14T15:06:07.401Z,2.40
2019-04-14T15:08:51.963Z,2.57
2019-04-14T15:11:36.925Z,2.40
2019-04-14T15:14:21.996Z,2.73
2019-04-14T15:17:08.384Z,2.77
2019-04-14T15:19:53.566Z,2.60
2019-04-14T15:22:38.226Z,2.70
2019-04-14T15:25:23.297Z,2.63
2019-04-14T15:28:08.019Z,2.50
2019-04-14T15:30:52.715Z,2.23
2019-04-14T15:33:39.305Z,2.90
2019-04-14T15:36:23.670Z,2.90
2019-04-14T15:39:08.126Z,2.80
2019-04-14T15:41:52.785Z,2.97
2019-04-14T15:44:37.751Z,2.87
2019-04-14T15:47:23.085Z,3.23
2019-04-14T15:50:07.993Z,2.90
2019-04-14T15:52:53.782Z,2.73
2019-04-14T15:55:38.752Z,3.20
2019-04-14T15:58:26.597Z,3.33
2019-04-14T16:01:11.259Z,3.27
2019-04-14T16:03:56.048Z,3.77
2019-04-14T16:06:40.527Z,3.90
2019-04-14T16:09:26.458Z,3.97
2019-04-14T16:12:11.319Z,4.40
2019-04-14T16:14:56.586Z,4.57
2019-04-14T16:17:41.348Z,4.40
2019-04-14T16:20:26.520Z,4.50
2019-04-14T16:23:12.207Z,4.77
2019-04-14T16:25:56.655Z,5.33
2019-04-14T16:28:41.105Z,5.10
2019-04-14T16:31:27.921Z,5.70
2019-04-14T16:34:13.097Z,6.33
2019-04-14T16:36:58.160Z,6.00
2019-04-14T16:39:43.244Z,6.23
2019-04-14T16:42:27.895Z,6.60
2019-04-14T16:45:12.971Z,6.53
2019-04-14T16:47:57.925Z,6.60
2019-04-14T16:50:42.708Z,8.00
2019-04-14T16:53:27.353Z,7.77
2019-04-14T16:56:11.891Z,7.57
2019-04-14T16:58:56.249Z,8.40
2019-04-14T17:01:40.810Z,8.97
2019-04-14T17:04:25.427Z,8.13
2019-04-14T17:07:10.330Z,8.73
2019-04-14T17:10:01.717Z,8.80
2019-04-14T17:15:52.879Z,9.13
2019-04-14T17:18:38.048Z,9.63
2019-04-14T17:21:23.119Z,9.13
2019-04-14T17:24:16.406Z,9.10
2019-04-14T17:26:54.281Z,9.23
2019-04-14T17:29:39.146Z,9.67
2019-04-14T17:32:24.316Z,11.57
2019-04-14T17:35:10.203Z,11.07
2019-04-14T17:37:54.861Z,9.87
2019-04-14T17:40:39.832Z,8.80
2019-04-14T17:43:24.695Z,8.87
2019-04-14T17:46:11.401Z,8.73
2019-04-14T17:48:55.962Z,8.90
2019-04-14T17:51:45.441Z,9.10
2019-04-14T17:54:30.076Z,9.27
2019-04-14T17:57:14.648Z,10.67
2019-04-14T18:00:00.138Z,11.10
2019-04-14T18:02:46.011Z,9.20
2019-04-14T18:05:30.468Z,9.50
2019-04-14T18:08:16.217Z,10.30
2019-04-14T18:11:01.118Z,9.73
2019-04-14T18:13:46.753Z,9.40
2019-04-14T18:16:33.301Z,8.47
2019-04-14T18:19:17.757Z,8.73
2019-04-14T18:22:02.825Z,8.77
2019-04-14T18:24:47.487Z,9.60
2019-04-14T18:27:32.244Z,10.43
2019-04-14T18:30:16.983Z,10.80
2019-04-14T18:33:01.844Z,9.73
2019-04-14T18:35:47.044Z,9.50
2019-04-14T18:38:31.909Z,9.93
2019-04-14T18:41:16.258Z,12.10
2019-04-14T18:44:02.453Z,10.50
2019-04-14T18:46:46.929Z,10.83
2019-04-14T18:49:32.746Z,10.47
2019-04-14T18:52:19.714Z,10.60
2019-04-14T18:55:05.192Z,12.70
2019-04-14T18:57:49.957Z,14.23
2019-04-14T19:00:35.189Z,16.63
2019-04-14T19:03:20.093Z,16.23
2019-04-14T19:06:05.485Z,15.87
2019-04-14T19:08:51.102Z,16.30
2019-04-14T19:11:35.661Z,17.57
2019-04-14T19:14:20.682Z,17.43
2019-04-14T19:17:05.540Z,17.27
2019-04-14T19:20:00.871Z,17.60
2019-04-14T19:22:36.976Z,16.40
2019-04-14T19:25:21.763Z,17.67
2019-04-14T19:28:06.493Z,17.97
2019-04-14T19:30:51.823Z,14.37
2019-04-14T19:33:37.330Z,15.27
2019-04-14T19:36:22.124Z,14.87
2019-04-14T19:39:09.384Z,14.53
2019-04-14T19:41:54.478Z,14.07
2019-04-14T19:44:39.652Z,13.67
2019-04-14T19:47:24.266Z,14.47
2019-04-14T19:50:08.828Z,14.67
2019-04-14T19:52:55.972Z,17.93
2019-04-14T19:55:42.752Z,16.10
2019-04-14T19:58:27.825Z,16.87
2019-04-14T20:01:12.676Z,16.37
2019-04-14T20:03:57.644Z,16.60
2019-04-14T20:06:42.203Z,16.77
2019-04-14T20:09:26.861Z,16.30
2019-04-14T20:13:59.338Z,17.00
2019-04-14T20:16:25.574Z,18.07
2019-04-14T20:18:51.801Z,17.60
2019-04-14T20:21:17.823Z,16.23
2019-04-14T20:23:44.157Z,16.67
2019-04-14T20:26:10.073Z,17.67
2019-04-14T20:28:36.198Z,17.13
2019-04-14T20:31:02.632Z,16.50
2019-04-14T20:33:28.684Z,16.83
2019-04-14T20:35:54.514Z,17.17
2019-04-14T20:38:21.844Z,16.63
2019-04-14T20:40:47.845Z,16.37
2019-04-14T20:43:14.174Z,18.43
2019-04-14T20:45:40.200Z,16.77
2019-04-14T20:48:06.361Z,16.00
2019-04-14T20:50:32.512Z,17.40
2019-04-14T20:52:58.679Z,16.53
2019-04-14T20:55:24.927Z,16.80
2019-04-14T20:57:51.132Z,17.30
2019-04-14T21:00:20.638Z,15.33
2019-04-14T21:02:51.684Z,15.90
2019-04-14T21:05:17.808Z,17.30
2019-04-14T21:07:43.924Z,17.33
2019-04-14T21:10:10.353Z,16.33
2019-04-14T21:12:36.278Z,17.47
2019-04-14T21:15:05.063Z,16.93
2019-04-14T21:17:31.175Z,15.90
2019-04-14T21:19:57.058Z,16.30
2019-04-14T21:22:23.031Z,16.07
2019-04-14T21:24:49.363Z,17.70
2019-04-14T21:27:15.278Z,17.27
2019-04-14T21:29:41.164Z,18.23
2019-04-14T21:32:07.119Z,18.33
2019-04-14T21:34:33.042Z,16.13
2019-04-14T21:36:58.901Z,18.47
2019-04-14T21:39:24.776Z,18.67
2019-04-14T21:41:50.804Z,19.70
2019-04-14T21:44:16.819Z,17.50
2019-04-14T21:46:42.742Z,18.10
2019-04-14T21:49:08.660Z,19.20
2019-04-14T21:51:34.585Z,19.13
2019-04-14T21:54:00.504Z,17.63
2019-04-14T21:56:26.624Z,20.50
2019-04-14T21:58:52.548Z,16.80
2019-04-14T22:01:23.503Z,19.17
2019-04-14T22:03:49.513Z,17.00
2019-04-14T22:06:15.433Z,17.60
2019-04-14T22:08:41.357Z,20.67
2019-04-14T22:11:07.368Z,18.57
2019-04-14T22:13:33.192Z,17.93
2019-04-14T22:15:59.120Z,18.77
2019-04-14T22:18:25.112Z,18.57
2019-04-14T22:20:51.360Z,18.70
2019-04-14T22:23:17.433Z,19.87
2019-04-14T22:25:43.405Z,19.97
2019-04-14T22:28:09.424Z,18.10
2019-04-14T22:30:35.450Z,21.13
2019-04-14T22:33:01.472Z,20.90
2019-04-14T22:35:27.493Z,21.50
2019-04-14T22:37:53.520Z,19.40
2019-04-14T22:40:19.549Z,21.33
2019-04-14T22:42:45.499Z,24.13
2019-04-14T22:45:11.587Z,22.77
2019-04-14T22:47:37.505Z,19.57
2019-04-14T22:50:04.958Z,20.60
2019-04-14T22:52:30.979Z,20.67
2019-04-14T22:54:57.028Z,20.50
2019-04-14T22:57:23.006Z,20.23
2019-04-14T22:59:48.951Z,22.10
2019-04-14T23:02:15.070Z,24.17
2019-04-14T23:04:41.092Z,22.47
2019-04-14T23:07:06.912Z,22.50
2019-04-14T23:09:32.935Z,21.57
2019-04-14T23:11:58.865Z,21.20
2019-04-14T23:14:24.772Z,21.40
2019-04-14T23:16:50.695Z,20.93
2019-04-14T23:19:16.817Z,21.07
2019-04-14T23:21:43.047Z,21.23
2019-04-14T23:24:09.276Z,23.37
2019-04-14T23:26:35.502Z,25.23
2019-04-14T23:29:01.629Z,22.40
2019-04-14T23:31:27.751Z,23.17
2019-04-14T23:33:53.882Z,25.50
2019-04-14T23:36:19.929Z,26.93
2019-04-14T23:38:46.024Z,27.83
2019-04-14T23:41:12.153Z,31.57
2019-04-14T23:43:39.112Z,31.27
2019-04-14T23:46:05.633Z,31.83
2019-04-14T23:48:32.529Z,33.80
2019-04-14T23:50:58.934Z,29.93
2019-04-14T23:53:25.565Z,32.10
2019-04-14T23:55:51.971Z,33.60
2019-04-14T23:58:18.939Z,31.80
